Time;durP1;ratioP1;P1;durP2;ratioP2;P2;SDS_P1;SDS_P2;PMS_P1;PMS_P2;Temp;Humidity;BMP_temperature;BMP_pressure;BME280_temperature;BME280_humidity;BME280_pressure;Samples;Min_cycle;Max_cycle;Signal;HPM_P1;HPM_P2
2024/04/08 00:01:06;;;;;;;15.18;5.38;;;;;;;;;;5129607;28;20252;-57
2024/04/08 00:03:31;;;;;;;18.67;6.10;;;;;;;;;;5129146;28;20091;-57
2024/04/08 00:05:57;;;;;;;13.60;6.23;;;;;;;;;;5128347;28;20036;-57
2024/04/08 00:08:22;;;;;;;13.83;5.60;;;;;;;;;;5127079;28;20028;-56
2024/04/08 00:10:47;;;;;;;14.13;6.45;;;;;;;;;;5122715;28;20020;-56
2024/04/08 00:13:13;;;;;;;14.82;6.05;;;;;;;;;;5126806;28;20043;-55
2024/04/08 00:15:39;;;;;;;13.65;6.13;;;;;;;;;;5129482;28;20034;-61
2024/04/08 00:18:04;;;;;;;18.23;6.72;;;;;;;;;;5126062;28;20054;-59
2024/04/08 00:20:30;;;;;;;22.13;6.47;;;;;;;;;;5129221;28;20020;-57
2024/04/08 00:22:55;;;;;;;14.90;6.73;;;;;;;;;;5125407;28;20042;-58
2024/04/08 00:25:21;;;;;;;17.38;5.75;;;;;;;;;;5128064;28;20027;-53
2024/04/08 00:27:46;;;;;;;16.13;6.23;;;;;;;;;;5124770;28;20080;-56
2024/04/08 00:30:12;;;;;;;11.83;5.60;;;;;;;;;;5126078;28;20440;-58
2024/04/08 00:32:37;;;;;;;11.07;5.57;;;;;;;;;;5129322;28;20031;-51
2024/04/08 00:35:03;;;;;;;16.80;5.32;;;;;;;;;;5128315;28;20035;-55
2024/04/08 00:37:28;;;;;;;16.90;4.90;;;;;;;;;;5129247;28;20036;-57
2024/04/08 00:39:54;;;;;;;16.30;5.47;;;;;;;;;;5128646;28;20053;-56
2024/04/08 00:42:19;;;;;;;21.40;5.07;;;;;;;;;;5127936;28;20052;-56
2024/04/08 00:44:44;;;;;;;12.00;5.07;;;;;;;;;;5123239;28;20036;-56
2024/04/08 00:47:10;;;;;;;13.82;4.68;;;;;;;;;;5127871;28;20027;-57
2024/04/08 00:49:37;;;;;;;14.68;6.03;;;;;;;;;;5126901;28;20046;-56
2024/04/08 00:52:03;;;;;;;11.87;5.73;;;;;;;;;;5129210;28;20031;-55
2024/04/08 00:54:29;;;;;;;11.82;5.40;;;;;;;;;;5130090;28;20288;-56
2024/04/08 00:56:55;;;;;;;10.18;5.40;;;;;;;;;;5128746;28;20028;-56
2024/04/08 00:59:22;;;;;;;11.27;5.60;;;;;;;;;;5127025;28;20034;-51
2024/04/08 01:01:48;;;;;;;17.05;6.30;;;;;;;;;;5125677;28;20020;-57
2024/04/08 01:04:13;;;;;;;13.88;5.20;;;;;;;;;;5125059;28;20099;-57
2024/04/08 01:06:39;;;;;;;12.27;5.33;;;;;;;;;;5130648;28;20020;-56
2024/04/08 01:09:05;;;;;;;19.15;6.45;;;;;;;;;;5129297;28;20256;-57
2024/04/08 01:13:06;;;;;;;9.47;4.90;;;;;;;;;;5466951;26;20357;-55
2024/04/08 01:15:31;;;;;;;13.77;5.27;;;;;;;;;;5468436;26;20240;-54
2024/04/08 01:17:57;;;;;;;10.13;4.88;;;;;;;;;;5464324;26;20010;-56
2024/04/08 01:20:22;;;;;;;14.93;4.63;;;;;;;;;;5465125;26;20011;-57
2024/04/08 01:22:48;;;;;;;11.30;4.80;;;;;;;;;;5465341;26;20003;-55
2024/04/08 01:25:14;;;;;;;12.15;4.93;;;;;;;;;;5462010;26;19999;-55
2024/04/08 01:27:39;;;;;;;15.15;5.05;;;;;;;;;;5467801;26;20009;-58
2024/04/08 01:30:05;;;;;;;16.02;5.18;;;;;;;;;;5462412;26;20006;-55
2024/04/08 01:32:31;;;;;;;16.48;5.45;;;;;;;;;;5466757;26;20010;-53
2024/04/08 01:34:56;;;;;;;13.32;4.97;;;;;;;;;;5490765;26;20018;-56
2024/04/08 01:37:22;;;;;;;17.20;4.97;;;;;;;;;;5469429;26;20054;-55
2024/04/08 01:39:47;;;;;;;14.97;5.27;;;;;;;;;;5460973;26;20023;-51
2024/04/08 01:42:12;;;;;;;8.03;4.50;;;;;;;;;;5463315;26;19999;-54
2024/04/08 01:44:37;;;;;;;12.03;4.70;;;;;;;;;;5464664;26;20007;-55
2024/04/08 01:47:03;;;;;;;12.40;4.53;;;;;;;;;;5460987;26;20044;-56
2024/04/08 01:49:29;;;;;;;8.65;4.28;;;;;;;;;;5465378;26;20006;-56
2024/04/08 01:51:54;;;;;;;12.60;4.93;;;;;;;;;;5465061;26;20006;-57
2024/04/08 01:54:22;;;;;;;10.30;4.33;;;;;;;;;;5464843;26;20019;-57
2024/04/08 01:56:48;;;;;;;14.33;4.27;;;;;;;;;;5460054;26;20018;-54
2024/04/08 01:59:13;;;;;;;12.35;5.25;;;;;;;;;;5466691;26;20232;-54
2024/04/08 02:01:39;;;;;;;7.97;4.47;;;;;;;;;;5470574;26;20007;-56
2024/04/08 02:04:04;;;;;;;14.87;4.73;;;;;;;;;;5459247;26;20240;-54
2024/04/08 02:06:29;;;;;;;11.38;4.88;;;;;;;;;;5466858;26;20073;-53
2024/04/08 02:08:55;;;;;;;13.20;4.88;;;;;;;;;;5463875;26;20017;-57
2024/04/08 02:11:20;;;;;;;10.80;5.23;;;;;;;;;;5466470;26;19994;-58
2024/04/08 02:13:46;;;;;;;7.10;4.27;;;;;;;;;;5467774;26;20457;-55
2024/04/08 02:16:11;;;;;;;10.47;5.03;;;;;;;;;;5454244;26;19995;-57
2024/04/08 02:18:36;;;;;;;15.43;5.22;;;;;;;;;;5448297;26;19999;-61
2024/04/08 02:21:02;;;;;;;12.50;4.65;;;;;;;;;;5457722;26;20006;-57
2024/04/08 02:23:27;;;;;;;9.43;4.70;;;;;;;;;;5455616;26;20049;-55
2024/04/08 02:25:53;;;;;;;12.05;4.82;;;;;;;;;;5447024;26;20217;-58
2024/04/08 02:28:18;;;;;;;12.43;5.18;;;;;;;;;;5447666;26;20050;-55
2024/04/08 02:30:44;;;;;;;16.80;5.10;;;;;;;;;;5452872;26;19995;-54
2024/04/08 02:33:09;;;;;;;15.52;4.70;;;;;;;;;;5452845;26;20010;-55
2024/04/08 02:35:35;;;;;;;10.77;5.20;;;;;;;;;;5446958;26;20000;-57
2024/04/08 02:38:04;;;;;;;13.80;5.30;;;;;;;;;;5450496;26;20010;-56
2024/04/08 02:40:32;;;;;;;15.37;5.20;;;;;;;;;;5444483;26;20006;-58
2024/04/08 02:42:58;;;;;;;13.90;5.10;;;;;;;;;;5448034;26;20232;-57
2024/04/08 02:45:23;;;;;;;12.10;5.00;;;;;;;;;;5445123;26;20330;-58
2024/04/08 02:47:48;;;;;;;13.87;5.40;;;;;;;;;;5455300;26;20011;-57
2024/04/08 02:50:14;;;;;;;13.93;5.50;;;;;;;;;;5449416;26;20045;-56
2024/04/08 02:52:39;;;;;;;10.77;5.03;;;;;;;;;;5449670;26;20020;-56
2024/04/08 02:55:05;;;;;;;9.50;5.28;;;;;;;;;;5454763;26;20011;-56
2024/04/08 02:57:30;;;;;;;14.52;5.60;;;;;;;;;;5451511;26;20052;-58
2024/04/08 02:59:56;;;;;;;10.60;4.70;;;;;;;;;;5457158;26;20021;-57
2024/04/08 03:02:21;;;;;;;8.70;4.90;;;;;;;;;;5448775;26;21611;-56
2024/04/08 03:04:47;;;;;;;15.05;5.85;;;;;;;;;;5449470;26;20216;-57
2024/04/08 03:07:12;;;;;;;9.43;5.47;;;;;;;;;;5458258;26;19999;-57
2024/04/08 03:09:38;;;;;;;10.70;5.47;;;;;;;;;;5448776;26;20006;-58
2024/04/08 03:12:03;;;;;;;9.30;4.55;;;;;;;;;;5452332;26;20032;-56
2024/04/08 03:14:29;;;;;;;12.43;4.80;;;;;;;;;;5447743;26;20003;-56
2024/04/08 03:16:54;;;;;;;11.50;4.78;;;;;;;;;;5447024;26;20000;-57
2024/04/08 03:19:20;;;;;;;12.80;5.57;;;;;;;;;;5445401;26;20007;-56
2024/04/08 03:21:45;;;;;;;8.63;4.80;;;;;;;;;;5444124;26;20007;-56
2024/04/08 03:24:11;;;;;;;10.43;4.72;;;;;;;;;;5449580;26;20021;-57
2024/04/08 03:26:37;;;;;;;7.28;4.63;;;;;;;;;;5451641;26;20000;-58
2024/04/08 03:29:02;;;;;;;9.63;4.55;;;;;;;;;;5451497;26;20002;-56
2024/04/08 03:31:28;;;;;;;8.38;4.63;;;;;;;;;;5453143;26;19999;-52
2024/04/08 03:33:54;;;;;;;7.40;4.40;;;;;;;;;;5452293;26;20056;-57
2024/04/08 03:36:19;;;;;;;8.33;5.20;;;;;;;;;;5448669;26;19999;-54
2024/04/08 03:38:45;;;;;;;12.77;4.47;;;;;;;;;;5442613;26;20235;-58
2024/04/08 03:41:10;;;;;;;28.40;5.73;;;;;;;;;;5447001;26;20006;-55
2024/04/08 03:43:35;;;;;;;12.90;5.73;;;;;;;;;;5443997;26;20490;-57
2024/04/08 03:46:03;;;;;;;9.10;5.10;;;;;;;;;;5452526;26;20022;-55
2024/04/08 03:48:29;;;;;;;10.15;5.47;;;;;;;;;;5448864;26;20268;-56
2024/04/08 03:50:55;;;;;;;11.13;5.65;;;;;;;;;;5453671;26;20003;-56
2024/04/08 03:53:21;;;;;;;11.30;5.53;;;;;;;;;;5446993;26;20010;-58
2024/04/08 03:55:46;;;;;;;12.37;5.13;;;;;;;;;;5439541;26;20245;-57
2024/04/08 03:58:12;;;;;;;13.40;6.65;;;;;;;;;;5440260;26;20070;-57
2024/04/08 04:00:38;;;;;;;14.03;5.63;;;;;;;;;;5451666;26;20011;-54
2024/04/08 04:03:03;;;;;;;12.05;6.53;;;;;;;;;;5447247;26;19996;-58
2024/04/08 04:05:29;;;;;;;16.80;7.13;;;;;;;;;;5432992;26;20010;-57
2024/04/08 04:07:56;;;;;;;16.17;6.87;;;;;;;;;;5431988;26;19996;-58
2024/04/08 04:10:21;;;;;;;18.80;6.90;;;;;;;;;;5442386;26;20002;-57
2024/04/08 04:12:47;;;;;;;18.02;6.25;;;;;;;;;;5440270;26;20264;-56
2024/04/08 04:15:12;;;;;;;16.23;7.27;;;;;;;;;;5472263;26;20015;-56
2024/04/08 04:17:38;;;;;;;22.55;8.35;;;;;;;;;;5446950;26;20006;-57
2024/04/08 04:20:06;;;;;;;15.88;7.57;;;;;;;;;;5449262;26;20004;-56
2024/04/08 04:22:31;;;;;;;15.20;6.93;;;;;;;;;;5445645;26;20015;-57
2024/04/08 04:24:57;;;;;;;14.30;7.03;;;;;;;;;;5453589;26;20260;-56
2024/04/08 04:27:23;;;;;;;15.20;7.82;;;;;;;;;;5433938;26;19999;-58
2024/04/08 04:29:48;;;;;;;15.30;9.07;;;;;;;;;;5447224;26;20003;-56
2024/04/08 04:32:14;;;;;;;15.07;7.03;;;;;;;;;;5431608;26;20007;-57
2024/04/08 04:34:39;;;;;;;18.27;7.93;;;;;;;;;;5438197;26;20034;-53
2024/04/08 04:37:05;;;;;;;16.40;8.05;;;;;;;;;;5448501;26;20012;-58
2024/04/08 04:39:31;;;;;;;13.57;7.25;;;;;;;;;;5444801;26;20006;-56
2024/04/08 04:41:57;;;;;;;13.50;8.73;;;;;;;;;;5451168;26;20045;-58
2024/04/08 04:44:22;;;;;;;25.77;9.17;;;;;;;;;;5446185;26;20022;-58
2024/04/08 04:46:48;;;;;;;15.37;8.13;;;;;;;;;;5445173;26;20237;-57
2024/04/08 04:49:13;;;;;;;14.30;7.50;;;;;;;;;;5449141;26;20532;-56
2024/04/08 04:51:39;;;;;;;18.05;7.93;;;;;;;;;;5448463;26;19999;-58
2024/04/08 04:54:05;;;;;;;15.48;8.63;;;;;;;;;;5447958;26;19999;-58
2024/04/08 04:56:31;;;;;;;16.80;8.50;;;;;;;;;;5450148;26;19999;-55
2024/04/08 04:58:57;;;;;;;23.80;9.90;;;;;;;;;;5449225;26;20010;-55
2024/04/08 05:01:22;;;;;;;24.90;8.60;;;;;;;;;;5445937;26;19999;-55
2024/04/08 05:03:47;;;;;;;22.27;10.07;;;;;;;;;;5449121;26;19995;-55
2024/04/08 05:06:14;;;;;;;19.38;9.00;;;;;;;;;;5444088;26;19999;-56
2024/04/08 05:08:40;;;;;;;20.88;9.35;;;;;;;;;;5448943;26;20019;-56
2024/04/08 05:11:05;;;;;;;19.50;9.07;;;;;;;;;;5451255;26;19996;-57
2024/04/08 05:13:30;;;;;;;20.90;9.52;;;;;;;;;;5414889;26;20019;-56
2024/04/08 05:16:00;;;;;;;25.77;9.90;;;;;;;;;;5452983;26;20010;-56
2024/04/08 05:18:25;;;;;;;19.33;8.93;;;;;;;;;;5450778;26;19999;-58
2024/04/08 05:20:51;;;;;;;16.73;8.87;;;;;;;;;;5449035;26;20281;-54
2024/04/08 05:23:17;;;;;;;17.85;10.02;;;;;;;;;;5446985;26;20217;-55
2024/04/08 05:25:44;;;;;;;20.65;10.57;;;;;;;;;;5452722;26;20003;-55
2024/04/08 05:28:09;;;;;;;;;;;;;;;;;;5454170;26;20006;-55
2024/04/08 05:30:35;;;;;;;23.43;10.10;;;;;;;;;;5445363;26;19931;-57
2024/04/08 05:33:01;;;;;;;29.73;10.18;;;;;;;;;;5451783;26;20022;-58
2024/04/08 05:35:27;;;;;;;26.35;11.30;;;;;;;;;;5454056;26;20018;-53
2024/04/08 05:37:52;;;;;;;26.70;11.57;;;;;;;;;;5445098;26;20006;-57
2024/04/08 05:40:17;;;;;;;19.63;9.77;;;;;;;;;;5445369;26;20502;-58
2024/04/08 05:42:46;;;;;;;22.03;10.97;;;;;;;;;;5434734;26;20709;-57
2024/04/08 05:45:11;;;;;;;25.77;10.87;;;;;;;;;;5429365;26;20062;-56
2024/04/08 05:47:37;;;;;;;22.88;11.35;;;;;;;;;;5430415;26;20229;-57
2024/04/08 05:50:04;;;;;;;28.42;11.90;;;;;;;;;;5429884;26;20003;-55
2024/04/08 05:52:30;;;;;;;22.35;11.05;;;;;;;;;;5429659;26;20003;-56
2024/04/08 05:54:56;;;;;;;30.25;12.35;;;;;;;;;;5431421;26;20011;-56
2024/04/08 05:57:21;;;;;;;22.25;12.43;;;;;;;;;;5430815;26;20004;-57
2024/04/08 05:59:47;;;;;;;43.67;14.07;;;;;;;;;;5445665;26;20030;-54
2024/04/08 06:02:12;;;;;;;26.52;12.70;;;;;;;;;;5444354;26;20063;-56
2024/04/08 06:04:37;;;;;;;24.77;12.17;;;;;;;;;;5447999;26;20013;-57
2024/04/08 06:07:04;;;;;;;24.10;12.38;;;;;;;;;;5450115;26;20133;-56
2024/04/08 06:09:29;;;;;;;21.77;12.02;;;;;;;;;;5455729;26;20007;-58
2024/04/08 06:11:55;;;;;;;24.07;11.50;;;;;;;;;;5447284;26;20003;-56
2024/04/08 06:14:20;;;;;;;25.88;12.52;;;;;;;;;;5445517;26;20266;-57
2024/04/08 06:16:46;;;;;;;23.45;12.52;;;;;;;;;;5449371;26;20053;-57
2024/04/08 06:19:11;;;;;;;22.88;13.10;;;;;;;;;;5444615;26;20058;-57
2024/04/08 06:21:37;;;;;;;22.03;12.37;;;;;;;;;;5442350;26;20007;-57
2024/04/08 06:24:03;;;;;;;23.70;12.23;;;;;;;;;;5449660;26;20007;-56
2024/04/08 06:26:28;;;;;;;20.73;11.07;;;;;;;;;;5414531;26;20003;-57
2024/04/08 06:28:53;;;;;;;26.45;13.00;;;;;;;;;;5448184;26;20024;-56
2024/04/08 06:31:20;;;;;;;24.58;11.10;;;;;;;;;;5445660;26;19996;-54
2024/04/08 06:33:45;;;;;;;21.58;11.52;;;;;;;;;;5451809;26;19999;-55
2024/04/08 06:36:12;;;;;;;23.35;11.65;;;;;;;;;;5448567;26;20047;-58
2024/04/08 06:38:37;;;;;;;21.10;11.13;;;;;;;;;;5434355;26;20010;-58
2024/04/08 06:41:03;;;;;;;;;;;;;;;;;;5432921;26;20017;-57
2024/04/08 06:43:28;;;;;;;27.47;11.20;;;;;;;;;;5433481;26;19966;-57
2024/04/08 06:45:54;;;;;;;24.27;11.73;;;;;;;;;;5433581;26;20018;-56
2024/04/08 06:48:20;;;;;;;25.25;11.98;;;;;;;;;;5432949;26;20011;-56
2024/04/08 06:50:45;;;;;;;24.40;12.10;;;;;;;;;;5434441;26;20057;-55
2024/04/08 06:53:11;;;;;;;22.48;12.48;;;;;;;;;;5418765;26;20007;-53
2024/04/08 06:55:36;;;;;;;25.55;12.30;;;;;;;;;;5446485;26;19999;-54
2024/04/08 06:58:02;;;;;;;22.92;11.85;;;;;;;;;;5443815;26;19998;-57
2024/04/08 07:00:27;;;;;;;19.70;10.93;;;;;;;;;;5432861;26;20018;-55
2024/04/08 07:02:53;;;;;;;24.57;13.20;;;;;;;;;;5433004;26;19996;-57
2024/04/08 07:05:18;;;;;;;21.50;11.60;;;;;;;;;;5433076;26;20007;-54
2024/04/08 07:07:44;;;;;;;27.77;13.23;;;;;;;;;;5408846;26;20019;-56
2024/04/08 07:10:10;;;;;;;22.85;12.13;;;;;;;;;;5446058;26;19999;-56
2024/04/08 07:12:36;;;;;;;16.00;10.02;;;;;;;;;;5448339;26;20009;-54
2024/04/08 07:15:02;;;;;;;27.58;10.32;;;;;;;;;;5446599;26;20011;-56
2024/04/08 07:17:27;;;;;;;18.50;10.68;;;;;;;;;;5450330;26;20008;-56
2024/04/08 07:19:53;;;;;;;20.27;9.02;;;;;;;;;;5419892;26;20014;-58
2024/04/08 07:22:18;;;;;;;20.20;9.27;;;;;;;;;;5408479;26;20010;-53
2024/04/08 07:24:44;;;;;;;18.37;8.60;;;;;;;;;;5438298;26;20351;-54
2024/04/08 07:27:10;;;;;;;17.17;8.00;;;;;;;;;;5446455;26;19999;-57
2024/04/08 07:29:36;;;;;;;14.00;7.55;;;;;;;;;;5417034;26;20349;-56
2024/04/08 07:32:01;;;;;;;14.23;8.03;;;;;;;;;;5447282;26;20018;-58
2024/04/08 07:34:27;;;;;;;12.82;8.05;;;;;;;;;;5456203;26;20273;-58
2024/04/08 07:36:52;;;;;;;17.38;7.20;;;;;;;;;;5444882;26;20010;-53
2024/04/08 07:39:18;;;;;;;12.15;6.75;;;;;;;;;;5445769;26;20006;-54
2024/04/08 07:41:43;;;;;;;14.60;6.60;;;;;;;;;;5450935;26;20014;-55
2024/04/08 07:44:09;;;;;;;12.77;6.70;;;;;;;;;;5454951;26;20002;-56
2024/04/08 07:46:34;;;;;;;11.10;5.87;;;;;;;;;;5450085;26;20052;-56
2024/04/08 07:48:59;;;;;;;9.45;5.70;;;;;;;;;;5443638;26;20014;-53
2024/04/08 07:51:25;;;;;;;11.73;5.20;;;;;;;;;;5441826;26;20449;-57
2024/04/08 07:53:51;;;;;;;9.77;4.97;;;;;;;;;;5393685;26;20038;-55
2024/04/08 07:56:16;;;;;;;9.07;5.32;;;;;;;;;;5452205;26;20018;-57
2024/04/08 07:58:42;;;;;;;10.43;5.23;;;;;;;;;;5445754;26;20010;-56
2024/04/08 08:01:07;;;;;;;12.55;5.70;;;;;;;;;;5447118;26;19998;-55
2024/04/08 08:03:33;;;;;;;7.37;4.77;;;;;;;;;;5449081;26;19999;-55
2024/04/08 08:05:58;;;;;;;9.55;5.00;;;;;;;;;;5446841;26;20000;-53
2024/04/08 08:08:25;;;;;;;9.57;4.50;;;;;;;;;;5444760;26;20283;-56
2024/04/08 08:10:51;;;;;;;9.43;4.33;;;;;;;;;;5445807;26;20009;-54
2024/04/08 08:13:17;;;;;;;;;;;;;;;;;;5455314;26;20003;-57
2024/04/08 08:15:42;;;;;;;9.17;3.93;;;;;;;;;;5438050;26;19925;-56
2024/04/08 08:18:08;;;;;;;8.98;3.42;;;;;;;;;;5441716;26;20000;-55
2024/04/08 08:20:33;;;;;;;6.87;2.83;;;;;;;;;;5441206;26;20003;-57
2024/04/08 08:23:00;;;;;;;9.25;3.30;;;;;;;;;;5443244;26;21314;-55
2024/04/08 08:25:26;;;;;;;10.77;3.60;;;;;;;;;;5446231;26;20018;-53
2024/04/08 08:27:51;;;;;;;11.40;3.85;;;;;;;;;;5448210;26;20008;-56
2024/04/08 08:30:16;;;;;;;10.23;4.67;;;;;;;;;;5438983;26;20006;-55
2024/04/08 08:32:43;;;;;;;12.37;5.13;;;;;;;;;;5447152;26;20266;-57
2024/04/08 08:35:08;;;;;;;8.37;4.37;;;;;;;;;;5440105;26;20016;-56
2024/04/08 08:37:33;;;;;;;10.57;4.45;;;;;;;;;;5444191;26;20027;-58
2024/04/08 08:40:00;;;;;;;12.02;4.80;;;;;;;;;;5444951;26;20011;-56
2024/04/08 08:42:28;;;;;;;14.63;4.90;;;;;;;;;;5444696;26;20029;-56
2024/04/08 08:44:56;;;;;;;64.07;24.10;;;;;;;;;;5444523;26;20011;-57
2024/04/08 08:47:22;;;;;;;6.77;3.53;;;;;;;;;;5444135;26;20053;-57
2024/04/08 08:49:50;;;;;;;6.78;3.60;;;;;;;;;;5439982;26;20011;-53
2024/04/08 08:52:16;;;;;;;10.03;3.80;;;;;;;;;;5442331;26;20015;-57
2024/04/08 08:54:41;;;;;;;10.57;3.90;;;;;;;;;;5445069;26;20049;-57
2024/04/08 08:57:07;;;;;;;10.23;3.73;;;;;;;;;;5448200;26;20220;-56
2024/04/08 08:59:32;;;;;;;5.00;3.47;;;;;;;;;;5438615;26;19999;-56
2024/04/08 09:01:59;;;;;;;7.72;3.50;;;;;;;;;;5444216;26;20017;-58
2024/04/08 09:04:26;;;;;;;6.88;3.85;;;;;;;;;;5446301;26;20017;-54
2024/04/08 09:06:53;;;;;;;7.07;4.30;;;;;;;;;;5445669;26;20014;-57
2024/04/08 09:09:18;;;;;;;10.33;4.37;;;;;;;;;;5446667;26;19999;-57
2024/04/08 09:11:46;;;;;;;9.30;4.20;;;;;;;;;;5444475;26;20007;-57
2024/04/08 09:14:12;;;;;;;9.07;4.87;;;;;;;;;;5444424;26;20278;-57
2024/04/08 09:16:37;;;;;;;14.93;4.70;;;;;;;;;;5441314;26;20003;-56
2024/04/08 09:19:03;;;;;;;15.10;4.43;;;;;;;;;;5449176;26;20012;-55
2024/04/08 09:21:28;;;;;;;9.98;4.10;;;;;;;;;;5441797;26;20229;-56
2024/04/08 09:23:54;;;;;;;;;;;;;;;;;;5448926;26;20095;-55
2024/04/08 09:26:19;;;;;;;10.07;3.80;;;;;;;;;;5447081;26;19933;-58
2024/04/08 09:28:45;;;;;;;6.68;3.50;;;;;;;;;;5444579;26;20044;-55
2024/04/08 09:31:11;;;;;;;8.95;3.97;;;;;;;;;;5442599;26;20015;-58
2024/04/08 09:33:36;;;;;;;8.48;4.45;;;;;;;;;;5449478;26;20006;-56
2024/04/08 09:36:01;;;;;;;;;;;;;;;;;;5451080;26;19999;-55
2024/04/08 09:38:27;;;;;;;12.60;3.97;;;;;;;;;;5449370;26;19928;-56
2024/04/08 09:40:53;;;;;;;9.18;3.45;;;;;;;;;;5446506;26;20003;-55
2024/04/08 09:43:18;;;;;;;;;;;;;;;;;;5448877;26;20007;-56
2024/04/08 09:45:44;;;;;;;10.48;4.20;;;;;;;;;;5438372;26;19925;-56
2024/04/08 09:48:12;;;;;;;9.90;4.20;;;;;;;;;;5444923;26;20019;-55
2024/04/08 09:50:40;;;;;;;6.63;4.30;;;;;;;;;;5451074;26;20085;-57
2024/04/08 09:53:05;;;;;;;8.70;4.37;;;;;;;;;;5443681;26;20006;-57
2024/04/08 09:55:32;;;;;;;10.93;4.18;;;;;;;;;;5441082;26;19992;-55
2024/04/08 09:57:58;;;;;;;23.87;12.73;;;;;;;;;;5449434;26;20058;-58
2024/04/08 10:00:28;;;;;;;19.90;7.60;;;;;;;;;;5446761;26;20000;-54
2024/04/08 10:02:55;;;;;;;17.13;7.37;;;;;;;;;;5446234;26;19999;-56
2024/04/08 10:05:21;;;;;;;21.87;10.17;;;;;;;;;;5446114;26;20372;-56
2024/04/08 10:07:46;;;;;;;;;;;;;;;;;;5433712;26;20000;-56
2024/04/08 10:10:12;;;;;;;11.60;5.82;;;;;;;;;;5442680;26;19925;-53
2024/04/08 10:12:39;;;;;;;159.02;66.63;;;;;;;;;;5449292;26;20015;-56
2024/04/08 10:15:15;;;;;;;33.58;13.43;;;;;;;;;;5446857;26;20000;-57
2024/04/08 10:17:41;;;;;;;60.00;24.57;;;;;;;;;;5445062;26;20003;-57
2024/04/08 10:20:06;;;;;;;11.90;5.57;;;;;;;;;;5449548;26;19999;-58
2024/04/08 10:22:33;;;;;;;50.53;22.23;;;;;;;;;;5441295;26;20011;-57
2024/04/08 10:24:58;;;;;;;31.83;12.32;;;;;;;;;;5448037;26;20004;-58
2024/04/08 10:27:25;;;;;;;43.42;18.33;;;;;;;;;;5446363;26;19998;-56
2024/04/08 10:29:57;;;;;;;11.35;5.63;;;;;;;;;;5434795;26;20015;-55
2024/04/08 10:32:23;;;;;;;32.80;14.00;;;;;;;;;;5432726;26;20045;-56
2024/04/08 10:34:48;;;;;;;7.28;3.33;;;;;;;;;;5447196;26;20014;-55
2024/04/08 10:37:14;;;;;;;12.23;6.22;;;;;;;;;;5416393;26;20054;-55
2024/04/08 10:39:39;;;;;;;7.57;3.30;;;;;;;;;;5439698;26;19995;-57
2024/04/08 10:42:15;;;;;;;9.30;3.55;;;;;;;;;;5451762;26;20018;-59
2024/04/08 10:44:41;;;;;;;10.00;3.72;;;;;;;;;;5444044;26;20019;-57
2024/04/08 10:47:07;;;;;;;7.88;3.88;;;;;;;;;;5449396;26;20009;-54
2024/04/08 10:49:32;;;;;;;;;;;;;;;;;;5445915;26;20012;-57
2024/04/08 10:51:58;;;;;;;9.93;5.60;;;;;;;;;;5446335;26;19925;-55
2024/04/08 10:54:23;;;;;;;;;;;;;;;;;;5445102;26;20018;-55
2024/04/08 10:56:48;;;;;;;20.93;9.90;;;;;;;;;;5443020;26;20369;-54
2024/04/08 10:59:14;;;;;;;7.65;4.07;;;;;;;;;;5446259;26;20010;-55
2024/04/08 11:01:39;;;;;;;;;;;;;;;;;;5448333;26;20014;-56
2024/04/08 11:04:05;;;;;;;9.98;5.18;;;;;;;;;;5443641;26;19968;-57
2024/04/08 11:06:31;;;;;;;10.05;4.70;;;;;;;;;;5414213;26;19990;-57
2024/04/08 11:08:56;;;;;;;18.25;9.43;;;;;;;;;;5418004;26;19996;-56
2024/04/08 11:11:25;;;;;;;5.82;3.58;;;;;;;;;;5448528;26;20003;-56
2024/04/08 11:13:50;;;;;;;9.02;4.00;;;;;;;;;;5444619;26;20022;-53
2024/04/08 11:16:15;;;;;;;;;;;;;;;;;;5444634;26;20020;-56
2024/04/08 11:18:41;;;;;;;22.05;11.55;;;;;;;;;;5445198;26;19932;-53
2024/04/08 11:21:06;;;;;;;;;;;;;;;;;;5415313;26;20011;-55
2024/04/08 11:23:32;;;;;;;10.87;5.40;;;;;;;;;;5415694;26;19935;-54
2024/04/08 11:25:57;;;;;;;;;;;;;;;;;;5476255;26;20007;-52
2024/04/08 11:28:23;;;;;;;9.94;6.04;;;;;;;;;;5441728;26;19978;-54
2024/04/08 11:30:48;;;;;;;;;;;;;;;;;;5441711;26;20011;-57
2024/04/08 11:33:14;;;;;;;7.17;4.27;;;;;;;;;;5443501;26;19931;-57
2024/04/08 11:35:39;;;;;;;;;;;;;;;;;;5446552;26;20046;-57
2024/04/08 11:38:06;;;;;;;10.10;4.75;;;;;;;;;;5442621;26;19924;-55
2024/04/08 11:40:31;;;;;;;8.43;3.92;;;;;;;;;;5446429;26;21387;-56
2024/04/08 11:42:56;;;;;;;;;;;;;;;;;;5448633;26;19999;-54
2024/04/08 11:45:22;;;;;;;6.20;4.30;;;;;;;;;;5439827;26;19975;-56
2024/04/08 11:47:47;;;;;;;;;;;;;;;;;;5447677;26;21576;-56
2024/04/08 11:50:12;;;;;;;10.02;6.06;;;;;;;;;;5441903;26;20312;-58
2024/04/08 11:52:37;;;;;;;;;;;;;;;;;;5447712;26;20022;-54
2024/04/08 11:55:06;;;;;;;10.10;4.98;;;;;;;;;;5443730;26;19972;-56
2024/04/08 11:57:32;;;;;;;9.40;5.37;;;;;;;;;;5443743;26;19995;-58
2024/04/08 11:59:58;;;;;;;10.23;5.10;;;;;;;;;;5436989;26;20057;-56
2024/04/08 12:02:23;;;;;;;15.65;5.95;;;;;;;;;;5444985;26;20019;-54
2024/04/08 12:04:49;;;;;;;7.65;5.07;;;;;;;;;;5443399;26;20011;-57
2024/04/08 12:07:15;;;;;;;13.50;5.00;;;;;;;;;;5439269;26;20039;-57
2024/04/08 12:09:44;;;;;;;;;;;;;;;;;;5444631;26;20002;-57
2024/04/08 12:12:13;;;;;;;11.43;5.83;;;;;;;;;;5448704;26;19925;-57
2024/04/08 12:14:38;;;;;;;13.87;8.67;;;;;;;;;;5437703;26;20031;-54
2024/04/08 12:17:03;;;;;;;14.40;6.97;;;;;;;;;;5440792;26;20015;-58
2024/04/08 12:19:29;;;;;;;9.88;6.07;;;;;;;;;;5413775;26;20018;-57
2024/04/08 12:21:54;;;;;;;11.73;5.63;;;;;;;;;;5447066;26;20003;-57
2024/04/08 12:24:20;;;;;;;14.40;6.82;;;;;;;;;;5445715;26;20053;-56
2024/04/08 12:26:45;;;;;;;15.17;7.50;;;;;;;;;;5446816;26;20072;-56
2024/04/08 12:29:11;;;;;;;12.52;6.82;;;;;;;;;;5441981;26;20034;-59
2024/04/08 12:31:37;;;;;;;9.10;5.57;;;;;;;;;;5444811;26;20011;-56
2024/04/08 12:34:02;;;;;;;12.93;7.13;;;;;;;;;;5447390;26;20046;-58
2024/04/08 12:36:27;;;;;;;12.35;6.28;;;;;;;;;;5435616;26;20006;-55
2024/04/08 12:38:52;;;;;;;11.75;6.18;;;;;;;;;;5431227;26;20015;-55
2024/04/08 12:41:18;;;;;;;10.57;6.60;;;;;;;;;;5429791;26;20069;-57
2024/04/08 12:43:44;;;;;;;9.57;5.90;;;;;;;;;;5430172;26;20003;-54
2024/04/08 12:46:10;;;;;;;11.07;7.20;;;;;;;;;;5430452;26;20000;-54
2024/04/08 12:48:36;;;;;;;27.07;14.17;;;;;;;;;;5428233;26;20004;-56
2024/04/08 12:51:01;;;;;;;12.93;6.65;;;;;;;;;;5428948;26;19996;-57
2024/04/08 12:53:27;;;;;;;10.77;6.30;;;;;;;;;;5457656;26;20014;-58
2024/04/08 12:55:53;;;;;;;13.73;7.05;;;;;;;;;;5440319;26;19996;-58
2024/04/08 12:58:19;;;;;;;12.93;7.23;;;;;;;;;;5448881;26;20044;-55
2024/04/08 13:00:44;;;;;;;11.95;6.72;;;;;;;;;;5449085;26;20008;-56
2024/04/08 13:03:10;;;;;;;13.27;7.55;;;;;;;;;;5441617;26;20018;-56
2024/04/08 13:05:35;;;;;;;10.27;6.88;;;;;;;;;;5462936;26;20000;-56
2024/04/08 13:08:01;;;;;;;12.57;7.22;;;;;;;;;;5441356;26;20015;-57
2024/04/08 13:10:26;;;;;;;12.05;7.43;;;;;;;;;;5447187;26;20003;-57
2024/04/08 13:12:52;;;;;;;10.88;7.55;;;;;;;;;;5441282;26;20023;-57
2024/04/08 13:15:18;;;;;;;15.50;7.90;;;;;;;;;;5440795;26;20062;-58
2024/04/08 13:17:43;;;;;;;16.10;8.55;;;;;;;;;;5442290;26;20067;-54
2024/04/08 13:20:09;;;;;;;13.73;6.75;;;;;;;;;;5443087;26;20010;-57
2024/04/08 13:22:34;;;;;;;13.48;7.32;;;;;;;;;;5445259;26;20019;-57
2024/04/08 13:24:59;;;;;;;13.60;7.15;;;;;;;;;;5445092;26;20008;-56
2024/04/08 13:27:25;;;;;;;16.30;8.75;;;;;;;;;;5439193;26;20055;-57
2024/04/08 13:29:50;;;;;;;;;;;;;;;;;;5444266;26;20049;-55
2024/04/08 13:32:16;;;;;;;10.00;6.20;;;;;;;;;;5447721;26;19928;-55
2024/04/08 13:34:41;;;;;;;;;;;;;;;;;;5450076;26;20015;-57
2024/04/08 13:37:07;;;;;;;29.40;10.70;;;;;;;;;;5449179;26;19996;-55
2024/04/08 13:39:32;;;;;;;;;;;;;;;;;;5444747;26;20013;-55
2024/04/08 13:41:57;;;;;;;16.73;7.17;;;;;;;;;;5446967;26;19925;-56
2024/04/08 13:44:22;;;;;;;;;;;;;;;;;;5444889;26;19995;-55
2024/04/08 13:46:48;;;;;;;13.90;5.13;;;;;;;;;;5439050;26;19932;-55
2024/04/08 13:49:13;;;;;;;20.67;9.68;;;;;;;;;;5445218;26;20010;-55
2024/04/08 13:51:38;;;;;;;22.80;10.48;;;;;;;;;;5446039;26;20023;-56
2024/04/08 13:54:04;;;;;;;13.73;6.20;;;;;;;;;;5444725;26;20385;-57
2024/04/08 13:56:29;;;;;;;14.73;6.55;;;;;;;;;;5445481;26;20058;-55
2024/04/08 13:58:55;;;;;;;11.23;5.18;;;;;;;;;;5439559;26;20016;-55
2024/04/08 14:01:20;;;;;;;27.08;14.40;;;;;;;;;;5435135;26;20061;-58
2024/04/08 14:03:45;;;;;;;12.88;6.20;;;;;;;;;;5437782;26;20010;-53
2024/04/08 14:06:11;;;;;;;13.70;6.85;;;;;;;;;;5444595;26;20007;-57
2024/04/08 14:08:36;;;;;;;28.08;11.98;;;;;;;;;;5441243;26;20010;-52
2024/04/08 14:11:02;;;;;;;;;;;;;;;;;;5443024;26;20010;-57
2024/04/08 14:13:27;;;;;;;12.73;6.93;;;;;;;;;;5436291;26;19917;-57
2024/04/08 14:15:53;;;;;;;;;;;;;;;;;;5404873;26;20019;-55
2024/04/08 14:18:19;;;;;;;14.45;5.47;;;;;;;;;;5444187;26;19931;-56
2024/04/08 14:20:44;;;;;;;22.17;9.32;;;;;;;;;;5453025;26;20002;-56
2024/04/08 14:23:09;;;;;;;25.25;11.95;;;;;;;;;;5442010;26;20010;-56
2024/04/08 14:25:35;;;;;;;23.35;10.32;;;;;;;;;;5446427;26;20018;-57
2024/04/08 14:28:01;;;;;;;16.67;7.35;;;;;;;;;;5445708;26;20050;-58
2024/04/08 14:30:27;;;;;;;8.35;4.55;;;;;;;;;;5446028;26;20004;-56